createdAt,value
2018-03-31T00:02:17.504Z,52.16
2018-03-31T00:04:44.879Z,52.62
2018-03-31T00:07:12.314Z,52.25
2018-03-31T00:09:39.772Z,51.69
2018-03-31T00:12:07.144Z,51.53
2018-03-31T00:14:34.613Z,50.55
2018-03-31T00:17:02.074Z,50.02
2018-03-31T00:19:29.532Z,49.75
2018-03-31T00:21:57.003Z,50.50
2018-03-31T00:24:24.393Z,50.77
2018-03-31T00:26:51.976Z,50.76
2018-03-31T00:29:19.462Z,50.87
2018-03-31T00:31:46.911Z,51.08
2018-03-31T00:34:14.354Z,51.91
2018-03-31T00:36:41.792Z,51.66
2018-03-31T00:39:09.571Z,51.18
2018-03-31T00:41:37.038Z,51.51
2018-03-31T00:44:04.421Z,51.66
2018-03-31T00:46:31.855Z,51.86
2018-03-31T00:48:59.295Z,52.17
2018-03-31T00:51:26.681Z,51.74
2018-03-31T00:53:54.205Z,52.08
2018-03-31T00:56:22.091Z,51.51
2018-03-31T00:58:49.519Z,51.38
2018-03-31T01:01:16.947Z,51.43
2018-03-31T01:03:44.418Z,52.93
2018-03-31T01:06:11.858Z,54.31
2018-03-31T01:08:39.299Z,52.92
2018-03-31T01:11:06.785Z,52.53
2018-03-31T01:13:34.252Z,52.04
2018-03-31T01:16:01.700Z,51.68
2018-03-31T01:18:29.147Z,52.28
2018-03-31T01:20:56.662Z,52.53
2018-03-31T01:23:24.160Z,52.51
2018-03-31T01:25:51.621Z,52.59
2018-03-31T01:28:19.083Z,52.71
2018-03-31T01:30:46.529Z,54.93
2018-03-31T01:33:13.959Z,53.54
2018-03-31T01:35:41.433Z,52.68
2018-03-31T01:38:08.951Z,53.70
2018-03-31T01:40:36.620Z,53.17
2018-03-31T01:43:04.079Z,53.20
2018-03-31T01:45:31.474Z,53.87
2018-03-31T01:47:58.956Z,54.15
2018-03-31T01:50:26.350Z,54.48
2018-03-31T01:52:53.882Z,54.40
2018-03-31T01:55:21.364Z,56.80
2018-03-31T01:57:48.843Z,56.06
2018-03-31T02:00:16.334Z,56.03
2018-03-31T02:02:43.852Z,57.18
2018-03-31T02:05:11.347Z,56.99
2018-03-31T02:07:38.807Z,56.84
2018-03-31T02:10:06.265Z,56.70
2018-03-31T02:12:33.750Z,55.65
2018-03-31T02:15:01.316Z,54.75
2018-03-31T02:17:28.771Z,54.47
2018-03-31T02:19:56.166Z,53.97
2018-03-31T02:22:23.625Z,53.78
2018-03-31T02:24:51.114Z,54.32
2018-03-31T02:27:18.583Z,54.42
2018-03-31T02:29:45.956Z,54.58
2018-03-31T02:32:13.415Z,54.74
2018-03-31T02:34:40.884Z,57.08
2018-03-31T02:37:08.376Z,57.27
2018-03-31T02:39:35.825Z,55.56
2018-03-31T02:42:03.551Z,55.12
2018-03-31T02:44:31.002Z,54.03
2018-03-31T02:46:58.519Z,53.91
2018-03-31T02:49:26.022Z,53.39
2018-03-31T02:51:53.479Z,53.52
2018-03-31T02:54:20.936Z,53.31
2018-03-31T02:56:48.404Z,52.65
2018-03-31T02:59:15.845Z,53.50
2018-03-31T03:01:43.291Z,55.11
2018-03-31T03:04:10.749Z,54.68
2018-03-31T03:06:38.365Z,56.57
2018-03-31T03:09:05.827Z,56.56
2018-03-31T03:11:33.271Z,57.89
2018-03-31T03:14:00.659Z,56.58
2018-03-31T03:16:28.110Z,58.14
2018-03-31T03:18:55.619Z,55.47
2018-03-31T03:21:23.163Z,55.05
2018-03-31T03:23:50.514Z,56.43
2018-03-31T03:26:17.961Z,56.75
2018-03-31T03:28:45.343Z,56.15
2018-03-31T03:31:12.784Z,56.16
2018-03-31T03:33:40.239Z,55.46
2018-03-31T03:36:07.709Z,55.55
2018-03-31T03:38:35.158Z,55.92
2018-03-31T03:41:02.621Z,55.48
2018-03-31T03:43:30.261Z,54.58
2018-03-31T03:45:57.790Z,54.17
2018-03-31T03:48:25.123Z,53.83
2018-03-31T03:50:52.584Z,54.09
2018-03-31T03:53:20.090Z,54.79
2018-03-31T03:55:48.613Z,55.21
2018-03-31T03:58:16.095Z,55.18
2018-03-31T04:00:43.584Z,55.27
2018-03-31T04:03:11.054Z,56.17
2018-03-31T04:05:38.539Z,55.07
2018-03-31T04:08:06.049Z,55.60
2018-03-31T04:10:33.481Z,56.52
2018-03-31T04:13:00.972Z,55.50
2018-03-31T04:15:28.527Z,56.89
2018-03-31T04:17:55.928Z,57.87
2018-03-31T04:20:23.457Z,57.65
2018-03-31T04:22:50.834Z,56.55
2018-03-31T04:25:18.327Z,60.49
2018-03-31T04:27:45.812Z,56.88
2018-03-31T04:30:13.332Z,55.38
2018-03-31T04:32:40.829Z,56.26
2018-03-31T04:35:08.263Z,55.01
2018-03-31T04:37:35.731Z,55.81
2018-03-31T04:40:03.214Z,56.23
2018-03-31T04:42:30.682Z,59.04
2018-03-31T04:44:58.425Z,59.34
2018-03-31T04:47:25.883Z,58.08
2018-03-31T04:49:53.371Z,57.46
2018-03-31T04:52:20.870Z,57.19
2018-03-31T04:54:48.340Z,56.64
2018-03-31T04:57:15.788Z,57.89
2018-03-31T04:59:43.290Z,53.65
2018-03-31T05:02:10.812Z,55.01
2018-03-31T05:04:38.545Z,55.56
2018-03-31T05:07:06.081Z,55.73
2018-03-31T05:09:33.542Z,56.35
2018-03-31T05:12:01.128Z,57.80
2018-03-31T05:14:28.606Z,57.65
2018-03-31T05:16:56.103Z,56.93
2018-03-31T05:19:23.744Z,57.69
2018-03-31T05:21:51.227Z,59.20
2018-03-31T05:24:18.797Z,59.07
2018-03-31T05:26:46.268Z,57.56
2018-03-31T05:29:13.761Z,56.78
2018-03-31T05:31:41.264Z,54.65
2018-03-31T05:34:08.736Z,55.36
2018-03-31T05:36:36.239Z,53.82
2018-03-31T05:39:03.839Z,54.15
2018-03-31T05:41:31.276Z,52.58
2018-03-31T05:43:58.761Z,53.14
2018-03-31T05:46:26.480Z,50.98
2018-03-31T05:48:53.944Z,53.24
2018-03-31T05:51:21.417Z,52.04
2018-03-31T05:53:48.889Z,51.60
2018-03-31T05:56:16.406Z,50.66
2018-03-31T05:58:46.610Z,49.88
2018-03-31T06:01:16.339Z,50.56
2018-03-31T06:03:43.825Z,50.35
2018-03-31T06:06:11.314Z,58.84
2018-03-31T06:08:41.408Z,54.71
2018-03-31T06:11:08.915Z,53.93
2018-03-31T06:13:36.378Z,53.41
2018-03-31T06:16:05.037Z,51.53
2018-03-31T06:18:32.520Z,52.94
2018-03-31T06:20:59.997Z,51.28
2018-03-31T06:23:27.397Z,49.57
2018-03-31T06:25:54.849Z,49.91
2018-03-31T06:28:22.310Z,47.20
2018-03-31T06:30:49.655Z,48.07
2018-03-31T06:33:17.114Z,50.59
2018-03-31T06:35:44.703Z,50.04
2018-03-31T06:38:12.157Z,50.05
2018-03-31T06:40:39.663Z,46.87
2018-03-31T06:43:07.154Z,47.37
2018-03-31T06:45:34.665Z,49.13
2018-03-31T06:48:02.513Z,48.19
2018-03-31T06:50:29.810Z,48.61
2018-03-31T06:52:57.266Z,47.33
2018-03-31T06:55:24.752Z,49.02
2018-03-31T06:57:52.195Z,48.82
2018-03-31T07:00:19.642Z,46.65
2018-03-31T07:02:47.137Z,45.70
2018-03-31T07:05:14.606Z,43.69
2018-03-31T07:07:42.053Z,43.77
2018-03-31T07:10:09.671Z,43.22
2018-03-31T07:12:37.157Z,43.80
2018-03-31T07:15:04.691Z,43.91
2018-03-31T07:17:32.151Z,45.12
2018-03-31T07:19:59.669Z,45.36
2018-03-31T07:22:27.153Z,46.00
2018-03-31T07:24:55.012Z,46.89
2018-03-31T07:27:23.189Z,45.09
2018-03-31T07:29:50.652Z,45.76
2018-03-31T07:32:18.156Z,42.18
2018-03-31T07:34:45.696Z,40.25
2018-03-31T07:37:13.148Z,40.16
2018-03-31T07:39:40.651Z,39.45
2018-03-31T07:42:08.130Z,38.99
2018-03-31T07:44:35.597Z,38.69
2018-03-31T07:47:03.148Z,37.74
2018-03-31T07:49:30.967Z,37.10
2018-03-31T07:51:58.611Z,38.55
2018-03-31T07:54:26.084Z,40.07
2018-03-31T07:56:53.575Z,40.75
2018-03-31T07:59:21.013Z,39.96
2018-03-31T08:01:48.456Z,38.59
2018-03-31T08:04:16.865Z,37.53
2018-03-31T08:06:45.303Z,39.06
2018-03-31T08:09:12.738Z,39.89
2018-03-31T08:11:40.214Z,37.97
2018-03-31T08:14:07.701Z,33.98
2018-03-31T08:16:35.171Z,34.68
2018-03-31T08:19:02.717Z,33.29
2018-03-31T08:21:30.167Z,32.70
2018-03-31T08:23:57.637Z,34.37
2018-03-31T08:26:25.110Z,33.31
2018-03-31T08:28:52.619Z,32.16
2018-03-31T08:31:20.120Z,33.06
2018-03-31T08:33:47.577Z,35.18
2018-03-31T08:36:15.067Z,34.61
2018-03-31T08:38:43.632Z,33.46
2018-03-31T08:41:11.181Z,32.57
2018-03-31T08:43:38.684Z,34.05
2018-03-31T08:46:06.184Z,33.51
2018-03-31T08:48:33.633Z,33.64
2018-03-31T08:51:01.775Z,34.07
2018-03-31T08:53:29.239Z,31.64
2018-03-31T08:55:56.822Z,34.34
2018-03-31T08:58:24.294Z,33.67
2018-03-31T09:00:51.804Z,35.86
2018-03-31T09:03:19.346Z,36.47
2018-03-31T09:05:46.836Z,35.55
2018-03-31T09:08:14.291Z,33.30
2018-03-31T09:10:42.053Z,31.90
2018-03-31T09:13:09.555Z,30.98
2018-03-31T09:15:37.014Z,32.30
2018-03-31T09:18:04.365Z,30.85
2018-03-31T09:20:31.892Z,32.77
2018-03-31T09:23:00.237Z,32.08
2018-03-31T09:25:27.721Z,33.08
2018-03-31T09:27:55.194Z,30.68
2018-03-31T09:30:22.672Z,31.01
2018-03-31T09:32:50.119Z,30.87
2018-03-31T09:35:17.521Z,30.96
2018-03-31T09:37:45.012Z,31.44
2018-03-31T09:40:13.917Z,30.90
2018-03-31T09:42:41.403Z,32.51
2018-03-31T09:45:08.914Z,30.15
2018-03-31T09:47:36.394Z,30.80
2018-03-31T09:50:03.952Z,31.27
2018-03-31T09:52:31.646Z,32.83
2018-03-31T09:54:59.082Z,32.80
2018-03-31T09:57:26.555Z,34.23
2018-03-31T09:59:54.041Z,32.13
2018-03-31T10:02:22.161Z,32.14
2018-03-31T10:04:49.658Z,34.39
2018-03-31T10:07:18.882Z,34.62
2018-03-31T10:09:47.114Z,36.98
2018-03-31T10:12:14.673Z,38.25
2018-03-31T10:14:42.168Z,38.97
2018-03-31T10:17:10.283Z,36.48
2018-03-31T10:19:37.673Z,35.26
2018-03-31T10:22:05.136Z,36.67
2018-03-31T10:24:32.642Z,35.92
2018-03-31T10:27:00.093Z,35.94
2018-03-31T10:29:27.642Z,34.72
2018-03-31T10:31:55.979Z,35.92
2018-03-31T10:34:23.459Z,35.34
2018-03-31T10:36:50.971Z,36.16
2018-03-31T10:39:18.470Z,33.71
2018-03-31T10:41:45.854Z,34.85
2018-03-31T10:44:13.358Z,33.47
2018-03-31T10:46:40.927Z,35.27
2018-03-31T10:49:08.443Z,33.67
2018-03-31T10:51:35.956Z,34.96
2018-03-31T10:54:03.684Z,34.61
2018-03-31T10:56:31.176Z,31.82
2018-03-31T10:58:58.628Z,31.32
2018-03-31T11:01:27.515Z,30.04
2018-03-31T11:03:55.095Z,31.20
2018-03-31T11:06:22.598Z,31.18
2018-03-31T11:08:50.163Z,28.02
2018-03-31T11:11:17.562Z,27.73
2018-03-31T11:13:45.087Z,26.87
2018-03-31T11:16:12.574Z,26.63
2018-03-31T11:18:40.096Z,26.45
2018-03-31T11:21:07.546Z,24.45
2018-03-31T11:23:34.998Z,24.03
2018-03-31T11:26:02.503Z,25.66
2018-03-31T11:28:29.972Z,24.62
2018-03-31T11:30:57.430Z,24.69
2018-03-31T11:33:24.922Z,23.75
2018-03-31T11:35:52.400Z,23.52
2018-03-31T11:38:19.838Z,21.89
2018-03-31T11:40:47.346Z,23.60
2018-03-31T11:43:14.848Z,23.08
2018-03-31T11:45:42.342Z,22.78
2018-03-31T11:48:09.781Z,21.95
2018-03-31T11:50:37.414Z,23.62
2018-03-31T11:53:05.894Z,23.13
2018-03-31T11:55:33.772Z,22.79
2018-03-31T11:58:01.407Z,23.46
2018-03-31T12:00:28.971Z,24.16
2018-03-31T12:02:57.327Z,24.06
2018-03-31T12:05:26.074Z,26.13
2018-03-31T12:07:53.606Z,25.74
2018-03-31T12:10:21.178Z,25.51
2018-03-31T12:12:48.623Z,25.64
2018-03-31T12:15:16.102Z,26.86
2018-03-31T12:17:43.582Z,26.38
2018-03-31T12:20:11.047Z,25.83
2018-03-31T12:22:38.480Z,25.46
2018-03-31T12:25:06.854Z,26.61
2018-03-31T12:27:35.572Z,27.12
2018-03-31T12:30:03.114Z,27.54
2018-03-31T12:32:30.583Z,28.47
2018-03-31T12:34:57.962Z,28.03
2018-03-31T12:37:25.449Z,27.80
2018-03-31T12:39:52.893Z,27.09
2018-03-31T12:42:20.361Z,27.63
2018-03-31T12:44:48.004Z,29.50
2018-03-31T12:47:17.176Z,28.30
2018-03-31T12:49:44.677Z,28.19
2018-03-31T12:52:12.218Z,26.74
2018-03-31T12:54:39.714Z,26.51
2018-03-31T12:57:07.496Z,27.34
2018-03-31T12:59:35.051Z,29.51
2018-03-31T13:02:02.560Z,28.96
2018-03-31T13:04:30.068Z,27.77
2018-03-31T13:06:58.927Z,27.73
2018-03-31T13:09:26.556Z,27.62
2018-03-31T13:11:54.102Z,27.66
2018-03-31T13:14:21.563Z,26.75
2018-03-31T13:16:48.987Z,26.75
2018-03-31T13:19:16.486Z,26.77
2018-03-31T13:21:43.975Z,25.55
2018-03-31T13:24:11.997Z,25.18
2018-03-31T13:26:39.387Z,25.53
2018-03-31T13:29:06.898Z,25.92
2018-03-31T13:31:34.364Z,25.87
2018-03-31T13:34:01.802Z,24.73
2018-03-31T13:36:29.187Z,24.50
2018-03-31T13:38:56.692Z,24.20
2018-03-31T13:41:24.167Z,24.09
2018-03-31T13:43:51.667Z,23.17
2018-03-31T13:46:19.172Z,24.14
2018-03-31T13:48:47.907Z,22.56
2018-03-31T13:51:15.428Z,24.13
2018-03-31T13:53:42.919Z,24.45
2018-03-31T13:56:10.381Z,24.52
2018-03-31T13:58:38.349Z,25.12
2018-03-31T14:01:05.921Z,25.82
2018-03-31T14:03:33.474Z,26.11
2018-03-31T14:06:01.089Z,26.66
2018-03-31T14:08:28.574Z,26.70
2018-03-31T14:10:56.078Z,27.28
2018-03-31T14:13:23.554Z,27.40
2018-03-31T14:15:51.024Z,27.00
2018-03-31T14:18:18.556Z,26.27
2018-03-31T14:20:46.017Z,28.03
2018-03-31T14:23:17.275Z,27.46
2018-03-31T14:25:44.744Z,26.72
2018-03-31T14:28:12.233Z,27.68
2018-03-31T14:30:39.750Z,28.56
2018-03-31T14:33:07.327Z,29.06
2018-03-31T14:35:34.825Z,30.36
2018-03-31T14:38:02.347Z,32.80
2018-03-31T14:40:29.844Z,32.89
2018-03-31T14:42:57.320Z,32.10
2018-03-31T14:45:24.786Z,32.54
2018-03-31T14:47:53.376Z,33.05
2018-03-31T14:50:20.907Z,33.60
2018-03-31T14:52:48.434Z,34.30
2018-03-31T14:55:16.385Z,35.57
2018-03-31T14:57:43.900Z,36.52
2018-03-31T15:00:11.675Z,35.88
2018-03-31T15:02:40.641Z,36.66
2018-03-31T15:05:08.168Z,36.04
2018-03-31T15:07:35.681Z,36.81
2018-03-31T15:10:03.272Z,37.42
2018-03-31T15:12:30.769Z,37.31
2018-03-31T15:14:58.278Z,37.06
2018-03-31T15:17:25.757Z,37.47
2018-03-31T15:19:53.249Z,38.37
2018-03-31T15:22:20.712Z,38.54
2018-03-31T15:24:48.199Z,37.68
2018-03-31T15:27:15.647Z,35.88
2018-03-31T15:29:43.162Z,35.83
2018-03-31T15:32:10.636Z,36.80
2018-03-31T15:34:38.119Z,37.90
2018-03-31T15:37:05.646Z,37.90
2018-03-31T15:39:38.856Z,36.19
2018-03-31T15:42:06.372Z,36.81
2018-03-31T15:44:33.914Z,36.90
2018-03-31T15:47:01.439Z,36.35
2018-03-31T15:49:30.069Z,38.22
2018-03-31T15:51:57.563Z,38.50
2018-03-31T15:54:24.899Z,39.75
2018-03-31T15:56:53.471Z,41.50
2018-03-31T15:59:20.962Z,40.36
2018-03-31T16:01:48.847Z,40.74
2018-03-31T16:04:17.010Z,41.65
2018-03-31T16:06:44.516Z,43.15
2018-03-31T16:09:12.308Z,44.55
2018-03-31T16:11:39.795Z,45.35
2018-03-31T16:14:07.386Z,45.50
2018-03-31T16:16:34.884Z,45.79
2018-03-31T16:22:00.235Z,46.43
2018-03-31T16:24:28.616Z,47.51
2018-03-31T16:26:56.138Z,47.44
2018-03-31T16:29:23.604Z,47.60
2018-03-31T16:31:51.048Z,48.66
2018-03-31T16:34:18.525Z,48.31
2018-03-31T16:36:45.977Z,47.34
2018-03-31T16:39:13.438Z,46.96
2018-03-31T16:41:40.941Z,47.74
2018-03-31T16:44:08.351Z,46.29
2018-03-31T16:46:35.836Z,46.92
2018-03-31T16:49:03.337Z,46.52
2018-03-31T16:51:30.759Z,47.34
2018-03-31T16:53:58.256Z,47.74
2018-03-31T16:56:25.761Z,47.00
2018-03-31T16:58:54.534Z,46.97
2018-03-31T17:01:21.974Z,47.88
2018-03-31T17:03:49.746Z,48.84
2018-03-31T17:06:17.296Z,48.59
2018-03-31T17:08:44.747Z,50.39
2018-03-31T17:11:12.141Z,49.75
2018-03-31T17:13:39.615Z,49.75
2018-03-31T17:16:07.079Z,48.64
2018-03-31T17:18:34.531Z,48.04
2018-03-31T17:21:02.030Z,49.33
2018-03-31T17:23:29.608Z,49.47
2018-03-31T17:25:57.102Z,48.06
2018-03-31T17:28:24.636Z,48.44
2018-03-31T17:30:58.038Z,49.49
2018-03-31T17:33:25.555Z,49.22
2018-03-31T17:35:52.928Z,50.54
2018-03-31T17:38:20.872Z,50.66
2018-03-31T17:40:49.651Z,51.13
2018-03-31T17:43:17.319Z,55.39
2018-03-31T17:45:44.793Z,56.05
2018-03-31T17:48:12.263Z,55.85
2018-03-31T17:50:39.725Z,57.41
2018-03-31T17:53:07.218Z,57.59
2018-03-31T17:55:34.736Z,57.81
2018-03-31T17:58:02.239Z,57.71
2018-03-31T18:00:29.712Z,57.43
2018-03-31T18:02:57.228Z,57.01
2018-03-31T18:05:25.035Z,58.82
2018-03-31T18:07:52.580Z,59.42
2018-03-31T18:10:20.615Z,59.57
2018-03-31T18:12:48.140Z,59.44
2018-03-31T18:15:15.641Z,59.51
2018-03-31T18:17:43.112Z,58.52
2018-03-31T18:20:10.592Z,58.25
2018-03-31T18:22:38.080Z,58.62
2018-03-31T18:25:05.573Z,59.08
2018-03-31T18:27:33.042Z,58.93
2018-03-31T18:30:00.450Z,59.47
2018-03-31T18:32:27.916Z,58.25
2018-03-31T18:34:55.397Z,58.41
2018-03-31T18:37:22.925Z,59.09
2018-03-31T18:39:50.402Z,57.11
2018-03-31T18:42:23.362Z,57.13
2018-03-31T18:44:50.854Z,56.63
2018-03-31T18:47:18.291Z,55.73
2018-03-31T18:49:46.849Z,55.71
2018-03-31T18:52:14.420Z,54.37
2018-03-31T18:54:41.894Z,55.66
2018-03-31T18:57:09.308Z,54.55
2018-03-31T18:59:36.783Z,54.06
2018-03-31T19:02:04.250Z,54.78
2018-03-31T19:04:31.700Z,55.44
2018-03-31T19:06:59.660Z,56.86
2018-03-31T19:09:27.122Z,58.11
2018-03-31T19:11:54.726Z,57.30
2018-03-31T19:14:22.189Z,58.67
2018-03-31T19:16:55.144Z,57.87
2018-03-31T19:19:22.640Z,57.11
2018-03-31T19:21:50.091Z,56.37
2018-03-31T19:24:17.571Z,56.42
2018-03-31T19:26:45.048Z,56.46
2018-03-31T19:29:12.537Z,57.42
2018-03-31T19:31:39.941Z,56.51
2018-03-31T19:34:07.413Z,56.19
2018-03-31T19:36:34.962Z,57.30
2018-03-31T19:39:02.448Z,59.38
2018-03-31T19:41:29.930Z,59.76
2018-03-31T19:43:57.447Z,60.24
2018-03-31T19:46:24.967Z,60.69
2018-03-31T19:48:52.403Z,61.04
2018-03-31T19:51:19.924Z,61.11
2018-03-31T19:53:47.408Z,60.49
2018-03-31T19:56:14.857Z,60.55
2018-03-31T19:58:42.420Z,60.96
2018-03-31T20:01:09.902Z,63.49
2018-03-31T20:03:37.366Z,63.96
2018-03-31T20:06:04.949Z,63.69
2018-03-31T20:08:32.618Z,64.03
2018-03-31T20:11:00.107Z,64.26
2018-03-31T20:13:27.581Z,64.06
2018-03-31T20:15:55.034Z,63.54
2018-03-31T20:18:22.442Z,62.08
2018-03-31T20:20:49.904Z,61.20
2018-03-31T20:23:17.381Z,61.01
2018-03-31T20:25:44.818Z,61.24
2018-03-31T20:28:12.267Z,61.01
2018-03-31T20:30:39.753Z,58.00
2018-03-31T20:33:07.210Z,60.08
2018-03-31T20:35:34.679Z,61.30
2018-03-31T20:38:02.133Z,62.12
2018-03-31T20:40:29.613Z,60.73
2018-03-31T20:42:57.180Z,60.36
2018-03-31T20:45:24.651Z,58.97
2018-03-31T20:47:52.142Z,60.44
2018-03-31T20:50:19.550Z,60.07
2018-03-31T20:52:47.026Z,58.48
2018-03-31T20:55:14.498Z,57.48
2018-03-31T20:57:41.942Z,57.65
2018-03-31T21:00:09.487Z,58.17
2018-03-31T21:02:36.981Z,60.45
2018-03-31T21:05:04.478Z,59.89
2018-03-31T21:07:31.950Z,60.29
2018-03-31T21:09:59.733Z,60.48
2018-03-31T21:12:27.201Z,58.43
2018-03-31T21:14:54.692Z,61.71
2018-03-31T21:17:22.161Z,61.34
2018-03-31T21:19:49.624Z,58.22
2018-03-31T21:22:17.080Z,58.16
2018-03-31T21:24:44.634Z,58.82
2018-03-31T21:27:12.088Z,58.49
2018-03-31T21:29:39.533Z,58.90
2018-03-31T21:32:07.022Z,59.46
2018-03-31T21:34:34.436Z,61.14
2018-03-31T21:37:01.912Z,61.15
2018-03-31T21:39:29.376Z,62.67
2018-03-31T21:41:56.838Z,61.28
2018-03-31T21:44:24.282Z,63.42
2018-03-31T21:46:51.731Z,60.60
2018-03-31T21:49:19.149Z,60.65
2018-03-31T21:51:46.615Z,61.50
2018-03-31T21:54:13.996Z,60.17
2018-03-31T21:56:41.634Z,63.15
2018-03-31T21:59:09.156Z,63.35
2018-03-31T22:01:36.484Z,63.17
2018-03-31T22:04:03.949Z,62.62
2018-03-31T22:06:31.404Z,63.09
2018-03-31T22:08:58.875Z,62.84
2018-03-31T22:11:26.768Z,59.74
2018-03-31T22:13:59.756Z,61.30
2018-03-31T22:16:27.194Z,60.48
2018-03-31T22:18:54.698Z,58.10
2018-03-31T22:21:22.079Z,60.79
2018-03-31T22:23:49.550Z,61.08
2018-03-31T22:26:17.002Z,60.34
2018-03-31T22:28:44.522Z,60.60
2018-03-31T22:31:11.959Z,60.18
2018-03-31T22:33:39.429Z,60.08
2018-03-31T22:36:06.942Z,58.17
2018-03-31T22:38:34.390Z,57.66
2018-03-31T22:41:01.840Z,56.79
2018-03-31T22:43:29.318Z,57.21
2018-03-31T22:45:56.782Z,59.18
2018-03-31T22:48:24.252Z,59.37
2018-03-31T22:50:51.700Z,60.22
2018-03-31T22:53:19.218Z,60.32
2018-03-31T22:55:46.708Z,61.72
2018-03-31T22:58:14.254Z,59.83
2018-03-31T23:00:41.732Z,58.07
2018-03-31T23:03:09.180Z,62.96
2018-03-31T23:05:36.736Z,62.34
2018-03-31T23:08:04.293Z,61.59
2018-03-31T23:10:31.814Z,62.74
2018-03-31T23:12:59.490Z,60.48
2018-03-31T23:15:26.969Z,58.52
2018-03-31T23:17:54.334Z,59.50
2018-03-31T23:20:21.843Z,61.24
2018-03-31T23:22:49.319Z,63.45
2018-03-31T23:25:16.772Z,65.92
2018-03-31T23:27:44.285Z,67.78
2018-03-31T23:30:11.722Z,67.45
2018-03-31T23:32:39.212Z,65.81
2018-03-31T23:35:06.653Z,66.51
2018-03-31T23:37:34.104Z,65.60
2018-03-31T23:40:01.556Z,68.11
2018-03-31T23:42:28.991Z,66.92
2018-03-31T23:44:56.457Z,65.39
2018-03-31T23:47:24.081Z,65.11
2018-03-31T23:49:51.579Z,64.02
2018-03-31T23:52:19.069Z,63.02
2018-03-31T23:54:46.529Z,63.87
2018-03-31T23:57:14.020Z,64.12
2018-03-31T23:59:41.514Z,66.83
